sensor_id;sensor_type;location;lat;lon;timestamp;temperature;humidity
5802;DHT22;2927;49.366;8.530;2022-09-16T00:01:16;15.60;99.90
5802;DHT22;2927;49.366;8.530;2022-09-16T00:03:43;15.60;99.90
5802;DHT22;2927;49.366;8.530;2022-09-16T00:06:20;15.60;99.90
5802;DHT22;2927;49.366;8.530;2022-09-16T00:08:50;15.60;1.00
5802;DHT22;2927;49.366;8.530;2022-09-16T00:11:17;15.60;1.00
5802;DHT22;2927;49.366;8.530;2022-09-16T00:13:44;15.50;1.00
5802;DHT22;2927;49.366;8.530;2022-09-16T00:16:15;15.50;1.00
5802;DHT22;2927;49.366;8.530;2022-09-16T00:18:41;15.50;99.90
5802;DHT22;2927;49.366;8.530;2022-09-16T00:21:08;15.60;1.00
5802;DHT22;2927;49.366;8.530;2022-09-16T00:23:34;15.50;1.00
5802;DHT22;2927;49.366;8.530;2022-09-16T00:26:00;15.50;1.00
5802;DHT22;2927;49.366;8.530;2022-09-16T00:28:25;15.50;1.00
5802;DHT22;2927;49.366;8.530;2022-09-16T00:30:51;15.50;44.70
5802;DHT22;2927;49.366;8.530;2022-09-16T00:33:17;15.50;1.00
5802;DHT22;2927;49.366;8.530;2022-09-16T00:35:43;15.40;99.90
5802;DHT22;2927;49.366;8.530;2022-09-16T00:38:09;15.40;1.00
5802;DHT22;2927;49.366;8.530;2022-09-16T00:40:34;15.50;1.00
5802;DHT22;2927;49.366;8.530;2022-09-16T00:43:12;15.50;46.00
5802;DHT22;2927;49.366;8.530;2022-09-16T00:45:38;15.50;99.90
5802;DHT22;2927;49.366;8.530;2022-09-16T00:48:08;15.50;99.90
5802;DHT22;2927;49.366;8.530;2022-09-16T00:50:44;15.50;1.00
5802;DHT22;2927;49.366;8.530;2022-09-16T00:53:16;15.50;1.00
5802;DHT22;2927;49.366;8.530;2022-09-16T00:55:43;15.50;1.00
5802;DHT22;2927;49.366;8.530;2022-09-16T00:58:16;15.50;1.00
5802;DHT22;2927;49.366;8.530;2022-09-16T01:00:43;15.50;1.00
5802;DHT22;2927;49.366;8.530;2022-09-16T01:03:08;15.50;99.90
5802;DHT22;2927;49.366;8.530;2022-09-16T01:05:35;15.60;1.00
5802;DHT22;2927;49.366;8.530;2022-09-16T01:08:02;15.60;99.90
5802;DHT22;2927;49.366;8.530;2022-09-16T01:10:27;15.60;1.00
5802;DHT22;2927;49.366;8.530;2022-09-16T01:13:01;15.70;99.90
5802;DHT22;2927;49.366;8.530;2022-09-16T01:15:39;15.70;1.00
5802;DHT22;2927;49.366;8.530;2022-09-16T01:18:09;15.70;1.00
5802;DHT22;2927;49.366;8.530;2022-09-16T01:29:18;15.60;1.00
5802;DHT22;2927;49.366;8.530;2022-09-16T01:32:03;15.50;1.00
5802;DHT22;2927;49.366;8.530;2022-09-16T01:34:52;15.50;1.00
5802;DHT22;2927;49.366;8.530;2022-09-16T01:43:17;15.50;1.00
5802;DHT22;2927;49.366;8.530;2022-09-16T01:48:43;15.60;99.90
5802;DHT22;2927;49.366;8.530;2022-09-16T01:54:11;15.50;1.00
5802;DHT22;2927;49.366;8.530;2022-09-16T01:56:55;15.50;1.00
5802;DHT22;2927;49.366;8.530;2022-09-16T01:59:28;15.40;1.00
5802;DHT22;2927;49.366;8.530;2022-09-16T02:04:55;15.20;1.00
5802;DHT22;2927;49.366;8.530;2022-09-16T02:07:34;15.10;1.00
5802;DHT22;2927;49.366;8.530;2022-09-16T02:10:12;15.10;49.00
5802;DHT22;2927;49.366;8.530;2022-09-16T02:12:41;15.10;23.20
5802;DHT22;2927;49.366;8.530;2022-09-16T02:15:12;15.10;1.00
5802;DHT22;2927;49.366;8.530;2022-09-16T02:17:46;15.10;1.00
5802;DHT22;2927;49.366;8.530;2022-09-16T02:20:19;15.20;99.90
5802;DHT22;2927;49.366;8.530;2022-09-16T02:22:57;15.30;71.90
5802;DHT22;2927;49.366;8.530;2022-09-16T02:25:25;15.40;17.90
5802;DHT22;2927;49.366;8.530;2022-09-16T02:27:52;15.40;1.00
5802;DHT22;2927;49.366;8.530;2022-09-16T02:30:20;15.40;1.00
5802;DHT22;2927;49.366;8.530;2022-09-16T02:32:48;15.40;1.00
5802;DHT22;2927;49.366;8.530;2022-09-16T02:35:16;15.40;1.00
5802;DHT22;2927;49.366;8.530;2022-09-16T02:38:02;15.50;1.00
5802;DHT22;2927;49.366;8.530;2022-09-16T02:40:31;15.50;1.00
5802;DHT22;2927;49.366;8.530;2022-09-16T02:42:58;15.50;1.00
5802;DHT22;2927;49.366;8.530;2022-09-16T02:45:33;15.50;1.00
5802;DHT22;2927;49.366;8.530;2022-09-16T02:48:08;15.50;1.00
5802;DHT22;2927;49.366;8.530;2022-09-16T02:50:49;15.50;1.00
5802;DHT22;2927;49.366;8.530;2022-09-16T02:53:31;15.50;1.00
5802;DHT22;2927;49.366;8.530;2022-09-16T02:56:12;15.50;1.00
5802;DHT22;2927;49.366;8.530;2022-09-16T02:58:38;15.60;1.00
5802;DHT22;2927;49.366;8.530;2022-09-16T03:01:04;15.50;1.00
5802;DHT22;2927;49.366;8.530;2022-09-16T03:03:30;15.40;1.00
5802;DHT22;2927;49.366;8.530;2022-09-16T03:08:31;15.30;30.60
5802;DHT22;2927;49.366;8.530;2022-09-16T03:22:22;15.10;1.00
5802;DHT22;2927;49.366;8.530;2022-09-16T03:25:23;15.10;99.90
5802;DHT22;2927;49.366;8.530;2022-09-16T03:28:01;15.10;99.90
5802;DHT22;2927;49.366;8.530;2022-09-16T03:30:31;15.10;1.00
5802;DHT22;2927;49.366;8.530;2022-09-16T03:33:06;15.10;99.90
5802;DHT22;2927;49.366;8.530;2022-09-16T03:35:42;15.20;1.00
5802;DHT22;2927;49.366;8.530;2022-09-16T03:38:09;15.10;1.00
5802;DHT22;2927;49.366;8.530;2022-09-16T03:40:35;15.00;1.00
5802;DHT22;2927;49.366;8.530;2022-09-16T03:43:09;15.00;1.00
5802;DHT22;2927;49.366;8.530;2022-09-16T03:45:36;15.00;48.50
5802;DHT22;2927;49.366;8.530;2022-09-16T03:48:01;15.00;99.90
5802;DHT22;2927;49.366;8.530;2022-09-16T03:50:27;15.10;99.90
5802;DHT22;2927;49.366;8.530;2022-09-16T03:52:52;15.10;99.90
5802;DHT22;2927;49.366;8.530;2022-09-16T03:55:18;15.10;99.90
5802;DHT22;2927;49.366;8.530;2022-09-16T03:57:43;15.10;50.80
5802;DHT22;2927;49.366;8.530;2022-09-16T04:00:09;15.20;1.00
5802;DHT22;2927;49.366;8.530;2022-09-16T04:02:35;15.20;1.00
5802;DHT22;2927;49.366;8.530;2022-09-16T04:05:00;15.30;1.00
5802;DHT22;2927;49.366;8.530;2022-09-16T04:07:26;15.30;99.90
5802;DHT22;2927;49.366;8.530;2022-09-16T04:09:52;15.40;99.90
5802;DHT22;2927;49.366;8.530;2022-09-16T04:12:17;15.40;10.10
5802;DHT22;2927;49.366;8.530;2022-09-16T04:14:43;15.40;10.10
5802;DHT22;2927;49.366;8.530;2022-09-16T04:17:08;15.40;1.00
5802;DHT22;2927;49.366;8.530;2022-09-16T04:19:34;15.40;1.00
5802;DHT22;2927;49.366;8.530;2022-09-16T04:21:59;15.40;1.00
5802;DHT22;2927;49.366;8.530;2022-09-16T04:24:25;15.50;99.90
5802;DHT22;2927;49.366;8.530;2022-09-16T04:26:51;15.50;1.00
5802;DHT22;2927;49.366;8.530;2022-09-16T04:29:16;15.40;1.00
5802;DHT22;2927;49.366;8.530;2022-09-16T04:31:42;15.40;1.00
5802;DHT22;2927;49.366;8.530;2022-09-16T04:34:08;15.40;1.00
5802;DHT22;2927;49.366;8.530;2022-09-16T04:36:36;15.40;1.00
5802;DHT22;2927;49.366;8.530;2022-09-16T04:39:02;15.30;1.00
5802;DHT22;2927;49.366;8.530;2022-09-16T04:41:28;15.30;1.00
5802;DHT22;2927;49.366;8.530;2022-09-16T04:43:55;15.30;1.00
5802;DHT22;2927;49.366;8.530;2022-09-16T04:46:22;15.30;1.00
5802;DHT22;2927;49.366;8.530;2022-09-16T04:48:48;15.40;1.00
5802;DHT22;2927;49.366;8.530;2022-09-16T04:51:15;15.30;1.00
5802;DHT22;2927;49.366;8.530;2022-09-16T04:53:41;15.30;1.00
5802;DHT22;2927;49.366;8.530;2022-09-16T04:56:12;15.30;1.00
5802;DHT22;2927;49.366;8.530;2022-09-16T04:59:01;15.20;46.80
5802;DHT22;2927;49.366;8.530;2022-09-16T05:01:29;15.20;29.40
5802;DHT22;2927;49.366;8.530;2022-09-16T05:03:58;15.20;93.90
5802;DHT22;2927;49.366;8.530;2022-09-16T05:06:28;15.10;76.20
5802;DHT22;2927;49.366;8.530;2022-09-16T05:08:55;15.10;99.90
5802;DHT22;2927;49.366;8.530;2022-09-16T05:11:29;15.10;99.90
5802;DHT22;2927;49.366;8.530;2022-09-16T05:14:00;15.10;99.90
5802;DHT22;2927;49.366;8.530;2022-09-16T05:16:26;15.10;99.90
5802;DHT22;2927;49.366;8.530;2022-09-16T05:18:54;15.10;99.90
5802;DHT22;2927;49.366;8.530;2022-09-16T05:21:22;15.00;99.90
5802;DHT22;2927;49.366;8.530;2022-09-16T05:23:48;15.00;99.90
5802;DHT22;2927;49.366;8.530;2022-09-16T05:26:16;15.00;99.90
5802;DHT22;2927;49.366;8.530;2022-09-16T05:28:42;15.00;99.90
5802;DHT22;2927;49.366;8.530;2022-09-16T05:31:17;15.10;99.90
5802;DHT22;2927;49.366;8.530;2022-09-16T05:33:44;15.00;99.90
5802;DHT22;2927;49.366;8.530;2022-09-16T05:36:13;15.00;99.90
5802;DHT22;2927;49.366;8.530;2022-09-16T05:38:38;15.00;99.90
5802;DHT22;2927;49.366;8.530;2022-09-16T05:41:05;15.00;99.90
5802;DHT22;2927;49.366;8.530;2022-09-16T05:43:31;15.00;99.90
5802;DHT22;2927;49.366;8.530;2022-09-16T05:45:57;15.00;99.90
5802;DHT22;2927;49.366;8.530;2022-09-16T05:48:23;14.90;99.90
5802;DHT22;2927;49.366;8.530;2022-09-16T05:51:03;14.90;99.90
5802;DHT22;2927;49.366;8.530;2022-09-16T05:53:30;15.00;99.90
5802;DHT22;2927;49.366;8.530;2022-09-16T05:56:05;15.00;99.90
5802;DHT22;2927;49.366;8.530;2022-09-16T05:58:32;15.00;99.90
5802;DHT22;2927;49.366;8.530;2022-09-16T06:01:04;15.10;99.90
5802;DHT22;2927;49.366;8.530;2022-09-16T06:03:31;15.00;99.90
5802;DHT22;2927;49.366;8.530;2022-09-16T06:06:02;15.00;99.90
5802;DHT22;2927;49.366;8.530;2022-09-16T06:08:29;14.90;99.90
5802;DHT22;2927;49.366;8.530;2022-09-16T06:10:55;15.10;99.90
5802;DHT22;2927;49.366;8.530;2022-09-16T06:13:21;15.10;99.90
5802;DHT22;2927;49.366;8.530;2022-09-16T06:15:51;15.20;99.90
5802;DHT22;2927;49.366;8.530;2022-09-16T06:18:19;15.30;99.90
5802;DHT22;2927;49.366;8.530;2022-09-16T06:20:45;15.40;99.90
5802;DHT22;2927;49.366;8.530;2022-09-16T06:23:12;15.40;99.90
5802;DHT22;2927;49.366;8.530;2022-09-16T06:25:38;15.50;99.90
5802;DHT22;2927;49.366;8.530;2022-09-16T06:28:03;15.50;99.90
5802;DHT22;2927;49.366;8.530;2022-09-16T06:30:29;15.50;99.90
5802;DHT22;2927;49.366;8.530;2022-09-16T06:32:54;15.60;99.90
5802;DHT22;2927;49.366;8.530;2022-09-16T06:35:20;15.60;99.90
5802;DHT22;2927;49.366;8.530;2022-09-16T06:37:45;15.60;99.90
5802;DHT22;2927;49.366;8.530;2022-09-16T06:40:11;15.60;99.90
5802;DHT22;2927;49.366;8.530;2022-09-16T06:42:37;15.60;67.30
5802;DHT22;2927;49.366;8.530;2022-09-16T06:45:03;15.70;99.90
5802;DHT22;2927;49.366;8.530;2022-09-16T06:47:29;15.80;93.70
5802;DHT22;2927;49.366;8.530;2022-09-16T06:49:58;15.90;99.90
5802;DHT22;2927;49.366;8.530;2022-09-16T06:52:24;15.90;53.20
5802;DHT22;2927;49.366;8.530;2022-09-16T06:54:49;15.90;68.60
5802;DHT22;2927;49.366;8.530;2022-09-16T06:57:15;16.00;69.40
5802;DHT22;2927;49.366;8.530;2022-09-16T06:59:42;16.10;1.00
5802;DHT22;2927;49.366;8.530;2022-09-16T07:02:09;16.30;1.00
5802;DHT22;2927;49.366;8.530;2022-09-16T07:04:35;16.50;1.00
5802;DHT22;2927;49.366;8.530;2022-09-16T07:07:00;16.50;1.00
5802;DHT22;2927;49.366;8.530;2022-09-16T07:09:26;16.50;1.00
5802;DHT22;2927;49.366;8.530;2022-09-16T07:11:51;16.70;1.00
5802;DHT22;2927;49.366;8.530;2022-09-16T07:14:17;16.90;1.00
5802;DHT22;2927;49.366;8.530;2022-09-16T07:16:43;16.90;1.00
5802;DHT22;2927;49.366;8.530;2022-09-16T07:19:08;16.90;1.00
5802;DHT22;2927;49.366;8.530;2022-09-16T07:21:34;16.90;1.00
5802;DHT22;2927;49.366;8.530;2022-09-16T07:24:01;16.90;99.90
5802;DHT22;2927;49.366;8.530;2022-09-16T07:26:30;17.00;99.90
5802;DHT22;2927;49.366;8.530;2022-09-16T07:28:59;16.70;1.00
5802;DHT22;2927;49.366;8.530;2022-09-16T07:31:27;16.60;99.90
5802;DHT22;2927;49.366;8.530;2022-09-16T07:33:55;16.70;99.90
5802;DHT22;2927;49.366;8.530;2022-09-16T07:36:23;16.60;99.90
5802;DHT22;2927;49.366;8.530;2022-09-16T07:38:50;16.60;1.00
5802;DHT22;2927;49.366;8.530;2022-09-16T07:41:24;16.50;1.00
5802;DHT22;2927;49.366;8.530;2022-09-16T07:43:50;16.50;99.90
5802;DHT22;2927;49.366;8.530;2022-09-16T07:46:17;16.50;1.00
5802;DHT22;2927;49.366;8.530;2022-09-16T07:48:44;16.60;1.00
5802;DHT22;2927;49.366;8.530;2022-09-16T07:51:12;16.60;1.00
5802;DHT22;2927;49.366;8.530;2022-09-16T07:53:38;16.70;50.90
5802;DHT22;2927;49.366;8.530;2022-09-16T07:56:07;16.50;25.00
5802;DHT22;2927;49.366;8.530;2022-09-16T07:58:33;16.40;1.00
5802;DHT22;2927;49.366;8.530;2022-09-16T08:00:59;16.40;1.00
5802;DHT22;2927;49.366;8.530;2022-09-16T08:03:25;16.30;99.90
5802;DHT22;2927;49.366;8.530;2022-09-16T08:05:50;16.50;99.90
5802;DHT22;2927;49.366;8.530;2022-09-16T08:08:16;16.50;99.90
5802;DHT22;2927;49.366;8.530;2022-09-16T08:10:42;16.50;1.00
5802;DHT22;2927;49.366;8.530;2022-09-16T08:13:09;16.50;99.90
5802;DHT22;2927;49.366;8.530;2022-09-16T08:15:34;16.20;1.00
5802;DHT22;2927;49.366;8.530;2022-09-16T08:18:00;16.10;1.00
5802;DHT22;2927;49.366;8.530;2022-09-16T08:20:26;16.10;1.00
5802;DHT22;2927;49.366;8.530;2022-09-16T08:22:52;16.00;1.00
5802;DHT22;2927;49.366;8.530;2022-09-16T08:25:18;16.10;1.00
5802;DHT22;2927;49.366;8.530;2022-09-16T08:27:44;16.00;1.00
5802;DHT22;2927;49.366;8.530;2022-09-16T08:30:10;15.90;99.90
5802;DHT22;2927;49.366;8.530;2022-09-16T08:32:36;15.90;99.90
5802;DHT22;2927;49.366;8.530;2022-09-16T08:35:02;16.00;1.00
5802;DHT22;2927;49.366;8.530;2022-09-16T08:37:28;16.10;1.00
5802;DHT22;2927;49.366;8.530;2022-09-16T08:39:53;16.00;1.00
5802;DHT22;2927;49.366;8.530;2022-09-16T08:45:17;16.10;96.80
5802;DHT22;2927;49.366;8.530;2022-09-16T08:50:27;16.00;99.90
5802;DHT22;2927;49.366;8.530;2022-09-16T08:52:56;16.00;99.90
5802;DHT22;2927;49.366;8.530;2022-09-16T08:55:29;16.00;1.00
5802;DHT22;2927;49.366;8.530;2022-09-16T09:00:22;15.80;1.00
5802;DHT22;2927;49.366;8.530;2022-09-16T09:03:20;15.80;99.90
5802;DHT22;2927;49.366;8.530;2022-09-16T09:05:52;15.70;1.00
5802;DHT22;2927;49.366;8.530;2022-09-16T09:14:11;16.00;1.00
5802;DHT22;2927;49.366;8.530;2022-09-16T09:17:06;16.30;1.00
5802;DHT22;2927;49.366;8.530;2022-09-16T09:23:09;16.90;99.90
5802;DHT22;2927;49.366;8.530;2022-09-16T09:25:45;17.10;1.00
5802;DHT22;2927;49.366;8.530;2022-09-16T09:28:43;17.10;1.00
5802;DHT22;2927;49.366;8.530;2022-09-16T09:41:42;17.50;1.00
5802;DHT22;2927;49.366;8.530;2022-09-16T09:45:10;17.20;99.90
5802;DHT22;2927;49.366;8.530;2022-09-16T09:47:46;17.50;99.90
5802;DHT22;2927;49.366;8.530;2022-09-16T09:55:26;17.80;1.00
5802;DHT22;2927;49.366;8.530;2022-09-16T09:58:07;18.20;99.90
5802;DHT22;2927;49.366;8.530;2022-09-16T10:00:36;18.40;99.90
5802;DHT22;2927;49.366;8.530;2022-09-16T10:03:10;18.20;99.90
5802;DHT22;2927;49.366;8.530;2022-09-16T10:05:36;17.80;99.90
5802;DHT22;2927;49.366;8.530;2022-09-16T10:08:14;17.80;99.90
5802;DHT22;2927;49.366;8.530;2022-09-16T10:10:48;18.00;99.90
5802;DHT22;2927;49.366;8.530;2022-09-16T10:13:14;17.20;1.00
5802;DHT22;2927;49.366;8.530;2022-09-16T10:15:42;16.90;1.00
5802;DHT22;2927;49.366;8.530;2022-09-16T10:18:28;16.90;1.00
5802;DHT22;2927;49.366;8.530;2022-09-16T10:21:01;16.80;5.40
5802;DHT22;2927;49.366;8.530;2022-09-16T10:23:27;16.90;99.90
5802;DHT22;2927;49.366;8.530;2022-09-16T10:28:33;17.80;1.00
5802;DHT22;2927;49.366;8.530;2022-09-16T10:30:59;17.90;1.00
5802;DHT22;2927;49.366;8.530;2022-09-16T10:33:31;18.00;1.00
5802;DHT22;2927;49.366;8.530;2022-09-16T10:36:16;18.00;1.00
5802;DHT22;2927;49.366;8.530;2022-09-16T10:41:27;17.80;1.00
5802;DHT22;2927;49.366;8.530;2022-09-16T10:43:56;18.00;1.00
5802;DHT22;2927;49.366;8.530;2022-09-16T10:46:23;18.10;1.00
5802;DHT22;2927;49.366;8.530;2022-09-16T10:48:50;18.00;1.00
5802;DHT22;2927;49.366;8.530;2022-09-16T10:51:29;17.90;1.00
5802;DHT22;2927;49.366;8.530;2022-09-16T10:53:58;18.00;1.00
5802;DHT22;2927;49.366;8.530;2022-09-16T10:56:27;18.10;1.00
5802;DHT22;2927;49.366;8.530;2022-09-16T10:59:12;18.10;1.00
5802;DHT22;2927;49.366;8.530;2022-09-16T11:01:43;18.20;1.00
5802;DHT22;2927;49.366;8.530;2022-09-16T11:04:38;18.30;1.00
5802;DHT22;2927;49.366;8.530;2022-09-16T11:07:17;18.20;1.00
5802;DHT22;2927;49.366;8.530;2022-09-16T11:18:24;18.70;1.00
5802;DHT22;2927;49.366;8.530;2022-09-16T11:21:04;18.20;1.00
5802;DHT22;2927;49.366;8.530;2022-09-16T11:23:50;18.20;1.00
5802;DHT22;2927;49.366;8.530;2022-09-16T11:27:00;18.70;1.00
5802;DHT22;2927;49.366;8.530;2022-09-16T11:32:16;19.20;1.00
5802;DHT22;2927;49.366;8.530;2022-09-16T11:37:37;19.10;1.00
5802;DHT22;2927;49.366;8.530;2022-09-16T11:43:15;19.40;1.00
5802;DHT22;2927;49.366;8.530;2022-09-16T11:46:10;19.10;1.00
5802;DHT22;2927;49.366;8.530;2022-09-16T11:52:00;18.90;1.00
5802;DHT22;2927;49.366;8.530;2022-09-16T11:57:20;18.80;1.00
5802;DHT22;2927;49.366;8.530;2022-09-16T12:05:21;19.10;1.00
5802;DHT22;2927;49.366;8.530;2022-09-16T12:10:31;19.30;1.00
5802;DHT22;2927;49.366;8.530;2022-09-16T12:13:04;19.30;1.00
5802;DHT22;2927;49.366;8.530;2022-09-16T12:15:38;19.20;1.00
5802;DHT22;2927;49.366;8.530;2022-09-16T12:18:31;19.30;1.00
5802;DHT22;2927;49.366;8.530;2022-09-16T12:21:31;19.30;1.00
5802;DHT22;2927;49.366;8.530;2022-09-16T12:29:55;19.60;1.00
5802;DHT22;2927;49.366;8.530;2022-09-16T12:35:23;19.10;1.00
5802;DHT22;2927;49.366;8.530;2022-09-16T12:37:53;18.60;1.00
5802;DHT22;2927;49.366;8.530;2022-09-16T12:40:26;18.10;1.00
5802;DHT22;2927;49.366;8.530;2022-09-16T12:43:35;17.60;1.00
5802;DHT22;2927;49.366;8.530;2022-09-16T12:57:44;18.50;1.00
5802;DHT22;2927;49.366;8.530;2022-09-16T13:02:45;18.10;1.00
5802;DHT22;2927;49.366;8.530;2022-09-16T13:05:24;18.20;1.00
5802;DHT22;2927;49.366;8.530;2022-09-16T13:07:54;18.40;1.00
5802;DHT22;2927;49.366;8.530;2022-09-16T13:12:55;18.80;1.00
5802;DHT22;2927;49.366;8.530;2022-09-16T13:15:34;18.70;1.00
5802;DHT22;2927;49.366;8.530;2022-09-16T13:20:46;18.60;1.00
5802;DHT22;2927;49.366;8.530;2022-09-16T13:23:23;18.50;1.00
5802;DHT22;2927;49.366;8.530;2022-09-16T13:28:38;18.60;1.00
5802;DHT22;2927;49.366;8.530;2022-09-16T13:33:36;18.80;1.00
5802;DHT22;2927;49.366;8.530;2022-09-16T13:38:46;19.20;1.00
5802;DHT22;2927;49.366;8.530;2022-09-16T13:41:28;19.40;1.00
5802;DHT22;2927;49.366;8.530;2022-09-16T13:43:54;18.70;1.00
5802;DHT22;2927;49.366;8.530;2022-09-16T13:46:35;18.50;1.00
5802;DHT22;2927;49.366;8.530;2022-09-16T13:51:32;18.70;1.00
5802;DHT22;2927;49.366;8.530;2022-09-16T13:53:58;18.70;1.00
5802;DHT22;2927;49.366;8.530;2022-09-16T13:56:42;18.90;1.00
5802;DHT22;2927;49.366;8.530;2022-09-16T14:01:57;18.60;1.00
5802;DHT22;2927;49.366;8.530;2022-09-16T14:04:45;17.60;1.00
5802;DHT22;2927;49.366;8.530;2022-09-16T14:10:15;17.50;26.20
5802;DHT22;2927;49.366;8.530;2022-09-16T14:13:03;17.40;99.90
5802;DHT22;2927;49.366;8.530;2022-09-16T14:15:36;17.20;1.00
5802;DHT22;2927;49.366;8.530;2022-09-16T14:18:05;17.20;74.90
5802;DHT22;2927;49.366;8.530;2022-09-16T14:20:32;17.10;1.00
5802;DHT22;2927;49.366;8.530;2022-09-16T14:23:03;17.00;54.90
5802;DHT22;2927;49.366;8.530;2022-09-16T14:25:34;17.00;99.90
5802;DHT22;2927;49.366;8.530;2022-09-16T14:33:17;17.10;99.90
5802;DHT22;2927;49.366;8.530;2022-09-16T14:35:46;16.90;44.70
5802;DHT22;2927;49.366;8.530;2022-09-16T14:38:15;16.90;99.90
5802;DHT22;2927;49.366;8.530;2022-09-16T14:40:42;16.70;1.00
5802;DHT22;2927;49.366;8.530;2022-09-16T14:43:14;16.70;1.00
5802;DHT22;2927;49.366;8.530;2022-09-16T14:45:45;16.60;1.00
5802;DHT22;2927;49.366;8.530;2022-09-16T14:48:13;16.60;99.90
5802;DHT22;2927;49.366;8.530;2022-09-16T14:50:44;16.60;1.00
5802;DHT22;2927;49.366;8.530;2022-09-16T14:53:26;16.50;1.00
5802;DHT22;2927;49.366;8.530;2022-09-16T14:55:51;16.40;1.00
5802;DHT22;2927;49.366;8.530;2022-09-16T14:58:18;16.40;1.00
5802;DHT22;2927;49.366;8.530;2022-09-16T15:00:52;16.40;1.00
5802;DHT22;2927;49.366;8.530;2022-09-16T15:03:36;16.40;1.00
5802;DHT22;2927;49.366;8.530;2022-09-16T15:06:10;16.10;1.00
5802;DHT22;2927;49.366;8.530;2022-09-16T15:08:43;16.00;99.90
5802;DHT22;2927;49.366;8.530;2022-09-16T15:11:17;15.90;99.90
5802;DHT22;2927;49.366;8.530;2022-09-16T15:13:44;15.70;99.90
5802;DHT22;2927;49.366;8.530;2022-09-16T15:16:13;15.60;99.90
5802;DHT22;2927;49.366;8.530;2022-09-16T15:18:57;15.50;1.00
5802;DHT22;2927;49.366;8.530;2022-09-16T15:21:29;15.40;1.00
5802;DHT22;2927;49.366;8.530;2022-09-16T15:24:03;15.30;1.00
5802;DHT22;2927;49.366;8.530;2022-09-16T15:26:42;15.10;90.50
5802;DHT22;2927;49.366;8.530;2022-09-16T15:31:43;15.00;1.00
5802;DHT22;2927;49.366;8.530;2022-09-16T15:39:26;15.20;1.00
5802;DHT22;2927;49.366;8.530;2022-09-16T15:44:41;15.20;1.00
5802;DHT22;2927;49.366;8.530;2022-09-16T15:47:33;15.10;1.00
5802;DHT22;2927;49.366;8.530;2022-09-16T15:50:12;15.20;1.00
5802;DHT22;2927;49.366;8.530;2022-09-16T15:52:56;15.20;99.90
5802;DHT22;2927;49.366;8.530;2022-09-16T15:58:08;15.40;99.90
5802;DHT22;2927;49.366;8.530;2022-09-16T16:03:19;15.50;1.90
5802;DHT22;2927;49.366;8.530;2022-09-16T16:05:52;15.60;1.00
5802;DHT22;2927;49.366;8.530;2022-09-16T16:08:41;15.60;1.00
5802;DHT22;2927;49.366;8.530;2022-09-16T16:11:10;15.60;99.90
5802;DHT22;2927;49.366;8.530;2022-09-16T16:13:36;15.70;1.00
5802;DHT22;2927;49.366;8.530;2022-09-16T16:16:03;15.60;1.00
5802;DHT22;2927;49.366;8.530;2022-09-16T16:18:31;15.40;1.00
5802;DHT22;2927;49.366;8.530;2022-09-16T16:20:58;15.20;99.90
5802;DHT22;2927;49.366;8.530;2022-09-16T16:23:26;15.10;99.90
5802;DHT22;2927;49.366;8.530;2022-09-16T16:25:51;15.10;1.00
5802;DHT22;2927;49.366;8.530;2022-09-16T16:28:17;15.10;99.90
5802;DHT22;2927;49.366;8.530;2022-09-16T16:30:42;15.10;1.00
5802;DHT22;2927;49.366;8.530;2022-09-16T16:33:08;15.10;99.90
5802;DHT22;2927;49.366;8.530;2022-09-16T16:35:33;15.10;1.00
5802;DHT22;2927;49.366;8.530;2022-09-16T16:37:59;14.90;99.90
5802;DHT22;2927;49.366;8.530;2022-09-16T16:40:24;14.90;1.00
5802;DHT22;2927;49.366;8.530;2022-09-16T16:42:50;14.90;99.90
5802;DHT22;2927;49.366;8.530;2022-09-16T16:45:16;14.70;1.00
5802;DHT22;2927;49.366;8.530;2022-09-16T16:47:42;14.80;1.00
5802;DHT22;2927;49.366;8.530;2022-09-16T16:50:09;14.70;99.90
5802;DHT22;2927;49.366;8.530;2022-09-16T16:52:35;14.70;1.00
5802;DHT22;2927;49.366;8.530;2022-09-16T16:55:01;14.60;99.90
5802;DHT22;2927;49.366;8.530;2022-09-16T16:57:26;14.50;1.00
5802;DHT22;2927;49.366;8.530;2022-09-16T16:59:52;14.50;1.00
5802;DHT22;2927;49.366;8.530;2022-09-16T17:02:17;14.30;1.00
5802;DHT22;2927;49.366;8.530;2022-09-16T17:04:43;14.40;99.90
5802;DHT22;2927;49.366;8.530;2022-09-16T17:07:08;14.40;99.90
5802;DHT22;2927;49.366;8.530;2022-09-16T17:09:35;14.30;99.90
5802;DHT22;2927;49.366;8.530;2022-09-16T17:12:01;14.30;1.00
5802;DHT22;2927;49.366;8.530;2022-09-16T17:14:30;14.30;1.00
5802;DHT22;2927;49.366;8.530;2022-09-16T17:16:56;14.30;1.00
5802;DHT22;2927;49.366;8.530;2022-09-16T17:19:24;14.20;1.00
5802;DHT22;2927;49.366;8.530;2022-09-16T17:21:51;14.20;1.00
5802;DHT22;2927;49.366;8.530;2022-09-16T17:24:20;14.20;99.90
5802;DHT22;2927;49.366;8.530;2022-09-16T17:26:46;14.10;99.90
5802;DHT22;2927;49.366;8.530;2022-09-16T17:29:12;14.00;1.00
5802;DHT22;2927;49.366;8.530;2022-09-16T17:31:38;14.00;1.00
5802;DHT22;2927;49.366;8.530;2022-09-16T17:34:07;13.90;1.00
5802;DHT22;2927;49.366;8.530;2022-09-16T17:36:37;13.80;1.00
5802;DHT22;2927;49.366;8.530;2022-09-16T17:39:09;13.80;1.00
5802;DHT22;2927;49.366;8.530;2022-09-16T17:41:35;13.70;99.90
5802;DHT22;2927;49.366;8.530;2022-09-16T17:44:06;13.60;1.00
5802;DHT22;2927;49.366;8.530;2022-09-16T17:46:33;13.60;1.00
5802;DHT22;2927;49.366;8.530;2022-09-16T17:49:04;13.60;1.00
5802;DHT22;2927;49.366;8.530;2022-09-16T17:51:31;13.50;1.00
5802;DHT22;2927;49.366;8.530;2022-09-16T17:53:57;13.50;1.00
5802;DHT22;2927;49.366;8.530;2022-09-16T17:56:22;13.50;1.00
5802;DHT22;2927;49.366;8.530;2022-09-16T17:58:50;13.50;1.00
5802;DHT22;2927;49.366;8.530;2022-09-16T18:01:18;13.60;1.00
5802;DHT22;2927;49.366;8.530;2022-09-16T18:03:46;13.60;1.00
5802;DHT22;2927;49.366;8.530;2022-09-16T18:06:20;13.50;1.00
5802;DHT22;2927;49.366;8.530;2022-09-16T18:08:47;13.50;20.70
5802;DHT22;2927;49.366;8.530;2022-09-16T18:11:14;13.60;3.80
5802;DHT22;2927;49.366;8.530;2022-09-16T18:13:40;13.60;1.00
5802;DHT22;2927;49.366;8.530;2022-09-16T18:16:14;13.60;1.00
5802;DHT22;2927;49.366;8.530;2022-09-16T18:18:41;13.50;1.00
5802;DHT22;2927;49.366;8.530;2022-09-16T18:21:09;13.40;1.00
5802;DHT22;2927;49.366;8.530;2022-09-16T18:23:35;13.40;1.00
5802;DHT22;2927;49.366;8.530;2022-09-16T18:26:05;13.40;1.00
5802;DHT22;2927;49.366;8.530;2022-09-16T18:28:37;13.30;1.00
5802;DHT22;2927;49.366;8.530;2022-09-16T18:31:09;13.20;1.00
5802;DHT22;2927;49.366;8.530;2022-09-16T18:33:35;13.10;1.00
5802;DHT22;2927;49.366;8.530;2022-09-16T18:36:04;13.10;1.00
5802;DHT22;2927;49.366;8.530;2022-09-16T18:38:31;13.10;1.00
5802;DHT22;2927;49.366;8.530;2022-09-16T18:41:05;13.10;1.00
5802;DHT22;2927;49.366;8.530;2022-09-16T18:43:31;13.10;1.00
5802;DHT22;2927;49.366;8.530;2022-09-16T18:49:04;13.10;1.00
5802;DHT22;2927;49.366;8.530;2022-09-16T18:51:35;13.10;1.00
5802;DHT22;2927;49.366;8.530;2022-09-16T18:54:16;13.10;1.00
5802;DHT22;2927;49.366;8.530;2022-09-16T18:56:43;13.10;1.00
5802;DHT22;2927;49.366;8.530;2022-09-16T18:59:14;13.20;1.00
5802;DHT22;2927;49.366;8.530;2022-09-16T19:01:41;13.20;1.00
5802;DHT22;2927;49.366;8.530;2022-09-16T19:04:09;13.10;1.00
5802;DHT22;2927;49.366;8.530;2022-09-16T19:06:38;13.10;1.00
5802;DHT22;2927;49.366;8.530;2022-09-16T19:09:07;13.00;1.00
5802;DHT22;2927;49.366;8.530;2022-09-16T19:11:34;12.90;1.00
5802;DHT22;2927;49.366;8.530;2022-09-16T19:14:00;12.80;1.00
5802;DHT22;2927;49.366;8.530;2022-09-16T19:16:26;12.70;1.00
5802;DHT22;2927;49.366;8.530;2022-09-16T19:18:53;12.70;1.00
5802;DHT22;2927;49.366;8.530;2022-09-16T19:21:20;12.70;1.00
5802;DHT22;2927;49.366;8.530;2022-09-16T19:23:52;12.80;1.00
5802;DHT22;2927;49.366;8.530;2022-09-16T19:26:17;12.80;99.90
5802;DHT22;2927;49.366;8.530;2022-09-16T19:28:43;12.70;99.90